Weather at Brinsmere Heliport

Public forecast

Using degrees Fahrenheit for public forecast. Weather courtesy of forecast.io.

Closest aviation weather report (METAR) to Brinsmere Heliport

Closest report is Dodge County Airport, 3.3 nm (6.1 km) NW. Retrieved 2021/06/13 17:15 UTC (0 seconds ago):

KUNU 131715Z AUTO 28005KT 10SM CLR 27/10 A3003 RMK AO2 T02700103

Closest aviation forecast (TAF) to Brinsmere Heliport

Closest forecast is Waukesha County Airport, 27.7 nm (51.2 km) SE. Retrieved 2021/06/13 12:22 UTC (5 hours ago):

TAF KUES 131120Z 1312/1412 33003KT P6SM SKC FM131600 33007KT P6SM SKC FM140200 22003KT P6SM FEW150 FM140800 03007KT P6SM SCT180